createdAt,value
2019-01-24T00:01:07.662Z,15.93
2019-01-24T00:02:40.670Z,14.03
2019-01-24T00:04:16.817Z,16.77
2019-01-24T00:05:49.291Z,18.02
2019-01-24T00:07:23.155Z,15.95
2019-01-24T00:08:57.067Z,16.07
2019-01-24T00:10:31.453Z,16.40
2019-01-24T00:12:05.490Z,14.50
2019-01-24T00:13:38.565Z,15.60
2019-01-24T00:15:11.815Z,20.27
2019-01-24T00:16:45.658Z,13.98
2019-01-24T00:18:19.936Z,18.23
2019-01-24T00:19:54.235Z,17.05
2019-01-24T00:21:27.847Z,15.60
2019-01-24T00:23:01.916Z,15.58
2019-01-24T00:24:36.043Z,14.60
2019-01-24T00:26:09.910Z,14.45
2019-01-24T00:27:44.033Z,14.83
2019-01-24T00:29:17.899Z,17.10
2019-01-24T00:30:51.126Z,15.88
2019-01-24T00:32:25.146Z,15.88
2019-01-24T00:33:58.371Z,17.25
2019-01-24T00:35:32.824Z,14.57
2019-01-24T00:37:05.886Z,15.90
2019-01-24T00:38:39.044Z,15.00
2019-01-24T00:40:12.722Z,17.43
2019-01-24T00:41:47.035Z,18.00
2019-01-24T00:43:20.568Z,17.93
2019-01-24T00:44:53.436Z,14.33
2019-01-24T00:46:26.557Z,17.47
2019-01-24T00:48:01.003Z,15.50
2019-01-24T00:49:35.204Z,16.47
2019-01-24T00:51:09.081Z,16.27
2019-01-24T00:52:42.942Z,17.87
2019-01-24T00:54:15.841Z,19.20
2019-01-24T00:55:49.867Z,14.80
2019-01-24T00:57:23.895Z,14.53
2019-01-24T00:58:56.922Z,15.38
2019-01-24T01:00:34.729Z,16.40
2019-01-24T01:02:08.668Z,18.87
2019-01-24T01:03:41.518Z,18.37
2019-01-24T01:05:15.455Z,18.80
2019-01-24T01:06:49.206Z,18.45
2019-01-24T01:08:25.404Z,16.42
2019-01-24T01:09:59.522Z,18.20
2019-01-24T01:11:33.631Z,13.50
2019-01-24T01:13:07.867Z,17.25
2019-01-24T01:14:42.624Z,14.83
2019-01-24T01:16:16.560Z,12.90
2019-01-24T01:17:50.518Z,14.23
2019-01-24T01:20:30.208Z,16.82
2019-01-24T01:22:05.648Z,16.37
2019-01-24T01:23:38.877Z,15.00
2019-01-24T01:25:13.253Z,16.47
2019-01-24T01:26:47.485Z,16.90
2019-01-24T01:28:21.671Z,17.30
2019-01-24T01:29:55.348Z,14.90
2019-01-24T01:31:29.958Z,13.87
2019-01-24T01:33:03.172Z,16.10
2019-01-24T01:34:37.170Z,13.53
2019-01-24T01:36:11.293Z,14.93
2019-01-24T01:37:45.395Z,14.60
2019-01-24T01:39:18.256Z,15.20
2019-01-24T01:40:52.179Z,18.87
2019-01-24T01:42:25.133Z,16.03
2019-01-24T01:43:59.540Z,17.23
2019-01-24T01:45:36.056Z,16.90
2019-01-24T01:47:08.880Z,13.27
2019-01-24T01:48:42.958Z,16.77
2019-01-24T01:50:16.989Z,16.13
2019-01-24T01:51:51.017Z,13.55
2019-01-24T01:53:25.155Z,20.30
2019-01-24T01:54:59.131Z,18.27
2019-01-24T01:56:33.530Z,18.53
2019-01-24T01:58:07.590Z,16.00
2019-01-24T01:59:41.815Z,17.07
2019-01-24T02:01:15.666Z,15.70
2019-01-24T02:02:50.258Z,16.47
2019-01-24T02:04:23.761Z,17.98
2019-01-24T02:05:56.632Z,18.07
2019-01-24T02:07:31.243Z,16.07
2019-01-24T02:09:05.237Z,17.83
2019-01-24T02:10:39.235Z,15.03
2019-01-24T02:12:13.444Z,17.47
2019-01-24T02:13:47.698Z,13.97
2019-01-24T02:15:23.316Z,15.27
2019-01-24T02:16:57.706Z,15.83
2019-01-24T02:18:30.495Z,16.20
2019-01-24T02:20:04.435Z,16.13
2019-01-24T02:21:39.225Z,14.43
2019-01-24T02:23:12.741Z,16.80
2019-01-24T02:24:46.687Z,17.60
2019-01-24T02:26:19.666Z,13.60
2019-01-24T02:27:52.796Z,14.97
2019-01-24T02:29:26.916Z,15.53
2019-01-24T02:31:00.903Z,13.73
2019-01-24T02:32:34.941Z,20.07
2019-01-24T02:34:09.422Z,17.70
2019-01-24T02:35:43.350Z,16.97
2019-01-24T02:37:17.767Z,16.43
2019-01-24T02:38:51.873Z,18.97
2019-01-24T02:40:25.952Z,16.13
2019-01-24T02:42:00.121Z,15.30
2019-01-24T02:43:35.010Z,19.62
2019-01-24T02:45:08.786Z,16.73
2019-01-24T02:46:42.902Z,17.07
2019-01-24T02:48:17.053Z,18.73
2019-01-24T02:49:51.140Z,14.57
2019-01-24T02:51:25.002Z,15.70
2019-01-24T02:52:58.042Z,17.97
2019-01-24T02:54:32.553Z,15.07
2019-01-24T02:56:06.510Z,15.13
2019-01-24T02:57:39.653Z,15.80
2019-01-24T02:59:15.025Z,16.75
2019-01-24T03:00:48.860Z,15.65
2019-01-24T03:02:22.862Z,16.40
2019-01-24T03:03:57.351Z,13.98
2019-01-24T03:05:33.817Z,14.90
2019-01-24T03:07:08.141Z,14.07
2019-01-24T03:08:42.571Z,15.40
2019-01-24T03:10:16.609Z,17.37
2019-01-24T03:11:50.755Z,17.80
2019-01-24T03:13:25.109Z,16.05
2019-01-24T03:14:57.930Z,14.65
2019-01-24T03:16:32.047Z,15.18
2019-01-24T03:18:06.045Z,18.62
2019-01-24T03:19:39.372Z,17.80
2019-01-24T03:21:12.386Z,17.92
2019-01-24T03:22:46.462Z,17.70
2019-01-24T03:24:21.139Z,17.67
2019-01-24T03:25:55.467Z,19.40
2019-01-24T03:27:29.482Z,17.10
2019-01-24T03:29:03.577Z,16.43
2019-01-24T03:30:39.617Z,18.03
2019-01-24T03:32:13.645Z,18.17
2019-01-24T03:33:48.279Z,17.70
2019-01-24T03:35:24.487Z,18.23
2019-01-24T03:36:58.441Z,20.10
2019-01-24T03:38:31.462Z,18.93
2019-01-24T03:40:04.768Z,19.13
2019-01-24T03:41:38.882Z,21.17
2019-01-24T03:43:12.794Z,17.10
2019-01-24T03:47:23.402Z,15.40
2019-01-24T03:48:56.664Z,18.97
2019-01-24T03:50:32.814Z,19.23
2019-01-24T03:52:06.097Z,14.90
2019-01-24T03:53:39.192Z,16.90
2019-01-24T03:55:13.395Z,19.25
2019-01-24T03:56:47.505Z,17.90
2019-01-24T03:58:22.131Z,17.62
2019-01-24T03:59:57.336Z,17.23
2019-01-24T04:01:31.330Z,21.48
2019-01-24T04:03:06.499Z,19.12
2019-01-24T04:04:39.813Z,18.95
2019-01-24T04:06:13.058Z,16.23
2019-01-24T04:07:47.696Z,16.13
2019-01-24T04:09:23.514Z,18.47
2019-01-24T04:10:57.546Z,17.17
2019-01-24T04:12:31.194Z,22.50
2019-01-24T04:14:04.381Z,15.00
2019-01-24T04:15:40.273Z,17.67
2019-01-24T04:17:14.796Z,16.73
2019-01-24T04:18:47.962Z,14.95
2019-01-24T04:20:23.508Z,19.42
2019-01-24T04:21:56.585Z,18.55
2019-01-24T04:23:30.624Z,19.83
2019-01-24T04:25:04.401Z,14.30
2019-01-24T04:26:38.405Z,19.67
2019-01-24T04:28:13.382Z,17.07
2019-01-24T04:29:47.747Z,16.77
2019-01-24T04:31:21.780Z,18.43
2019-01-24T04:32:55.697Z,15.37
2019-01-24T04:34:30.296Z,16.20
2019-01-24T04:36:03.854Z,17.20
2019-01-24T04:37:38.202Z,16.67
2019-01-24T04:39:12.412Z,18.87
2019-01-24T04:40:46.891Z,19.10
2019-01-24T04:42:21.339Z,17.17
2019-01-24T04:43:55.219Z,16.90
2019-01-24T04:45:30.237Z,16.00
2019-01-24T04:47:04.280Z,18.40
2019-01-24T04:48:38.570Z,15.10
2019-01-24T04:50:13.337Z,20.57
2019-01-24T04:51:47.456Z,17.97
2019-01-24T04:53:21.525Z,18.50
2019-01-24T04:54:55.978Z,17.20
2019-01-24T04:56:30.237Z,14.38
2019-01-24T04:58:05.892Z,16.97
2019-01-24T04:59:40.265Z,17.92
2019-01-24T05:01:14.698Z,13.08
2019-01-24T05:02:48.709Z,13.88
2019-01-24T05:04:22.819Z,19.00
2019-01-24T05:05:57.297Z,17.52
2019-01-24T05:07:31.442Z,18.35
2019-01-24T05:09:05.067Z,20.25
2019-01-24T05:10:38.300Z,15.85
2019-01-24T05:12:12.958Z,16.73
2019-01-24T05:13:46.948Z,18.15
2019-01-24T05:15:20.963Z,17.67
2019-01-24T05:16:54.767Z,13.70
2019-01-24T05:18:28.195Z,16.67
2019-01-24T05:20:01.956Z,17.05
2019-01-24T05:21:35.754Z,15.93
2019-01-24T05:23:10.356Z,13.88
2019-01-24T05:24:43.723Z,17.07
2019-01-24T05:26:17.874Z,13.25
2019-01-24T05:27:51.452Z,17.15
2019-01-24T05:29:25.364Z,16.65
2019-01-24T05:30:58.350Z,14.90
2019-01-24T05:32:32.226Z,13.60
2019-01-24T05:34:06.464Z,14.15
2019-01-24T05:35:39.501Z,16.23
2019-01-24T05:37:13.718Z,16.60
2019-01-24T05:38:48.076Z,16.07
2019-01-24T05:40:23.299Z,13.05
2019-01-24T05:41:57.940Z,16.60
2019-01-24T05:43:30.937Z,15.05
2019-01-24T05:45:04.682Z,17.90
2019-01-24T05:46:38.781Z,14.53
2019-01-24T05:48:11.632Z,13.70
2019-01-24T05:49:44.563Z,15.20
2019-01-24T05:51:18.711Z,14.53
2019-01-24T05:52:52.982Z,16.73
2019-01-24T05:54:26.849Z,15.38
2019-01-24T05:56:01.196Z,14.45
2019-01-24T05:57:35.190Z,16.60
2019-01-24T05:59:08.440Z,21.75
2019-01-24T06:00:46.897Z,19.07
2019-01-24T06:02:21.822Z,15.10
2019-01-24T06:03:55.798Z,15.50
2019-01-24T06:05:31.022Z,17.23
2019-01-24T06:07:05.842Z,15.10
2019-01-24T06:08:39.701Z,15.95
2019-01-24T06:10:13.995Z,15.15
2019-01-24T06:11:47.085Z,13.62
2019-01-24T06:13:21.307Z,16.60
2019-01-24T06:14:55.550Z,16.50
2019-01-24T06:16:28.628Z,16.03
2019-01-24T06:18:02.850Z,16.32
2019-01-24T06:19:36.774Z,15.08
2019-01-24T06:21:11.210Z,17.42
2019-01-24T06:22:44.779Z,15.95
2019-01-24T06:24:17.887Z,15.88
2019-01-24T06:25:51.547Z,16.02
2019-01-24T06:27:26.037Z,14.83
2019-01-24T06:28:59.759Z,16.85
2019-01-24T06:30:36.036Z,14.28
2019-01-24T06:32:10.024Z,13.93
2019-01-24T06:33:44.067Z,15.45
2019-01-24T06:35:18.334Z,14.03
2019-01-24T06:36:52.569Z,12.95
2019-01-24T06:38:26.982Z,20.00
2019-01-24T06:40:01.236Z,18.42
2019-01-24T06:41:34.495Z,19.95
2019-01-24T06:43:08.787Z,21.68
2019-01-24T06:44:41.859Z,20.72
2019-01-24T06:46:15.870Z,20.30
2019-01-24T06:47:50.004Z,25.37
2019-01-24T06:49:23.158Z,22.10
2019-01-24T06:50:57.054Z,23.47
2019-01-24T06:52:31.079Z,26.62
2019-01-24T06:54:05.443Z,23.83
2019-01-24T06:55:42.546Z,22.25
2019-01-24T06:57:16.491Z,24.95
2019-01-24T06:58:49.348Z,24.92
2019-01-24T07:00:24.386Z,28.40
2019-01-24T07:01:57.342Z,33.13
2019-01-24T07:03:31.595Z,32.17
2019-01-24T07:05:04.672Z,29.72
2019-01-24T07:06:39.171Z,31.55
2019-01-24T07:08:13.459Z,26.37
2019-01-24T07:09:46.727Z,28.05
2019-01-24T07:11:20.567Z,31.62
2019-01-24T07:12:54.533Z,27.20
2019-01-24T07:14:28.517Z,36.03
2019-01-24T07:16:03.531Z,32.90
2019-01-24T07:17:38.114Z,30.68
2019-01-24T07:19:12.282Z,31.62
2019-01-24T07:20:46.576Z,35.25
2019-01-24T07:22:20.974Z,31.65
2019-01-24T07:23:55.063Z,39.40
2019-01-24T07:25:33.064Z,30.17
2019-01-24T07:27:07.163Z,35.45
2019-01-24T07:28:41.601Z,37.53
2019-01-24T07:30:15.481Z,38.60
2019-01-24T07:31:49.919Z,36.75
2019-01-24T07:33:24.031Z,36.83
2019-01-24T07:34:57.856Z,36.45
2019-01-24T07:36:31.795Z,33.08
2019-01-24T07:38:06.352Z,41.15
2019-01-24T07:39:40.630Z,43.40
2019-01-24T07:41:14.641Z,40.75
2019-01-24T07:42:48.157Z,42.15
2019-01-24T07:44:22.261Z,42.85
2019-01-24T07:45:58.826Z,42.17
2019-01-24T07:47:32.942Z,44.80
2019-01-24T07:49:07.152Z,46.08
2019-01-24T07:50:41.113Z,38.25
2019-01-24T07:52:15.059Z,46.60
2019-01-24T07:53:48.978Z,40.90
2019-01-24T07:55:24.366Z,40.73
2019-01-24T07:56:58.452Z,43.23
2019-01-24T07:58:32.174Z,43.25
2019-01-24T08:00:05.936Z,47.93
2019-01-24T08:01:39.713Z,51.73
2019-01-24T08:03:13.915Z,44.53
2019-01-24T08:04:48.112Z,45.70
2019-01-24T08:06:22.097Z,50.85
2019-01-24T08:07:56.197Z,51.37
2019-01-24T08:09:30.332Z,45.35
2019-01-24T08:11:04.950Z,53.08
2019-01-24T08:12:38.754Z,46.90
2019-01-24T08:14:12.111Z,47.95
2019-01-24T08:15:51.534Z,53.68
2019-01-24T08:17:26.910Z,47.48
2019-01-24T08:19:02.568Z,46.42
2019-01-24T08:20:40.594Z,43.25
2019-01-24T08:22:15.576Z,51.18
2019-01-24T08:23:50.280Z,45.63
2019-01-24T08:25:25.250Z,50.23
2019-01-24T08:26:59.073Z,50.58
2019-01-24T08:28:32.868Z,42.83
2019-01-24T08:30:06.932Z,44.93
2019-01-24T08:31:41.435Z,46.05
2019-01-24T08:33:15.427Z,48.13
2019-01-24T08:34:48.375Z,43.58
2019-01-24T08:36:23.769Z,50.12
2019-01-24T08:37:57.679Z,51.00
2019-01-24T08:39:32.770Z,40.12
2019-01-24T08:41:05.956Z,50.75
2019-01-24T08:42:41.292Z,42.27
2019-01-24T08:44:16.964Z,43.83
2019-01-24T08:45:52.044Z,49.50
2019-01-24T08:47:26.206Z,47.45
2019-01-24T08:49:00.699Z,55.60
2019-01-24T08:50:37.046Z,50.83
2019-01-24T08:52:11.476Z,50.05
2019-01-24T08:53:44.347Z,46.08
2019-01-24T08:55:17.446Z,49.83
2019-01-24T08:56:50.369Z,50.95
2019-01-24T08:58:25.367Z,50.10
2019-01-24T08:59:59.788Z,48.48
2019-01-24T09:01:33.852Z,51.58
2019-01-24T09:03:06.877Z,47.90
2019-01-24T09:04:40.003Z,46.37
2019-01-24T09:06:14.161Z,53.30
2019-01-24T09:07:47.137Z,48.98
2019-01-24T09:09:23.857Z,48.92
2019-01-24T09:11:00.690Z,46.70
2019-01-24T09:12:34.718Z,49.53
2019-01-24T09:14:09.405Z,49.27
2019-01-24T09:15:43.841Z,44.20
2019-01-24T09:17:17.920Z,45.43
2019-01-24T09:18:51.793Z,52.48
2019-01-24T09:20:27.126Z,47.95
2019-01-24T09:22:01.578Z,48.63
2019-01-24T09:23:35.889Z,43.35
2019-01-24T09:25:10.132Z,45.35
2019-01-24T09:26:44.113Z,48.35
2019-01-24T09:28:17.108Z,56.58
2019-01-24T09:29:50.987Z,47.98
2019-01-24T09:31:25.464Z,52.65
2019-01-24T09:32:59.400Z,45.80
2019-01-24T09:34:33.216Z,56.65
2019-01-24T09:36:07.413Z,48.48
2019-01-24T09:37:41.582Z,48.48
2019-01-24T09:39:16.044Z,49.55
2019-01-24T09:40:50.797Z,52.80
2019-01-24T09:42:24.867Z,52.62
2019-01-24T09:43:58.336Z,52.33
2019-01-24T09:45:35.354Z,53.25
2019-01-24T09:47:08.698Z,52.58
2019-01-24T09:48:42.833Z,52.90
2019-01-24T09:50:17.514Z,55.78
2019-01-24T09:51:51.784Z,58.00
2019-01-24T09:53:25.976Z,53.20
2019-01-24T09:54:59.915Z,51.37
2019-01-24T09:56:34.049Z,55.30
2019-01-24T09:58:09.051Z,55.40
2019-01-24T09:59:43.019Z,53.92
2019-01-24T10:01:18.152Z,57.77
2019-01-24T10:02:51.919Z,57.20
2019-01-24T10:04:25.951Z,54.63
2019-01-24T10:06:00.016Z,60.83
2019-01-24T10:07:33.818Z,61.33
2019-01-24T10:09:06.948Z,66.37
2019-01-24T10:10:40.903Z,56.05
2019-01-24T10:12:14.835Z,67.45
2019-01-24T10:13:48.344Z,58.58
2019-01-24T10:15:23.676Z,56.68
2019-01-24T10:16:58.293Z,51.17
2019-01-24T10:20:11.284Z,62.83
2019-01-24T10:21:44.874Z,54.37
2019-01-24T10:23:19.510Z,58.40
2019-01-24T10:25:04.603Z,53.80
2019-01-24T10:26:39.189Z,52.62
2019-01-24T10:28:14.148Z,54.45
2019-01-24T10:29:48.150Z,60.58
2019-01-24T10:31:22.471Z,58.67
2019-01-24T10:32:57.291Z,57.30
2019-01-24T10:34:32.467Z,52.48
2019-01-24T10:36:07.361Z,61.47
2019-01-24T10:37:41.350Z,53.70
2019-01-24T10:39:16.249Z,52.77
2019-01-24T10:40:52.382Z,58.43
2019-01-24T10:42:26.306Z,55.93
2019-01-24T10:43:59.370Z,58.27
2019-01-24T10:45:35.391Z,59.10
2019-01-24T10:47:09.308Z,62.20
2019-01-24T10:48:44.705Z,54.73
2019-01-24T10:50:19.912Z,53.37
2019-01-24T10:51:53.650Z,59.73
2019-01-24T10:53:28.044Z,58.63
2019-01-24T10:55:02.062Z,53.80
2019-01-24T10:56:37.371Z,57.23
2019-01-24T10:58:12.323Z,60.27
2019-01-24T10:59:46.142Z,57.70
2019-01-24T11:01:20.079Z,54.53
2019-01-24T11:02:53.462Z,57.80
2019-01-24T11:04:27.444Z,57.63
2019-01-24T11:06:01.965Z,54.30
2019-01-24T11:07:34.961Z,56.73
2019-01-24T11:09:08.879Z,55.57
2019-01-24T11:10:44.134Z,54.87
2019-01-24T11:12:17.571Z,59.73
2019-01-24T11:13:51.571Z,53.07
2019-01-24T11:15:27.682Z,59.47
2019-01-24T11:17:00.964Z,58.17
2019-01-24T11:18:35.586Z,56.80
2019-01-24T11:20:09.426Z,62.33
2019-01-24T11:21:43.412Z,64.43
2019-01-24T11:23:16.524Z,62.10
2019-01-24T11:24:50.599Z,60.83
2019-01-24T11:26:25.367Z,63.17
2019-01-24T11:28:00.067Z,62.83
2019-01-24T11:29:34.355Z,55.20
2019-01-24T11:31:08.772Z,63.13
2019-01-24T11:32:42.918Z,58.33
2019-01-24T11:34:16.992Z,59.63
2019-01-24T11:35:53.702Z,60.90
2019-01-24T11:37:27.596Z,59.93
2019-01-24T11:39:01.884Z,56.30
2019-01-24T11:40:36.717Z,53.73
2019-01-24T11:42:10.127Z,52.77
2019-01-24T11:43:44.610Z,55.93
2019-01-24T11:45:18.598Z,55.07
2019-01-24T11:46:52.876Z,63.10
2019-01-24T11:48:26.946Z,59.13
2019-01-24T11:50:00.101Z,61.27
2019-01-24T11:51:33.914Z,63.40
2019-01-24T11:53:07.043Z,57.60
2019-01-24T11:54:40.993Z,58.63
2019-01-24T11:56:15.011Z,51.50
2019-01-24T11:57:49.391Z,60.90
2019-01-24T11:59:23.517Z,61.47
2019-01-24T12:00:58.434Z,57.33
2019-01-24T12:02:31.183Z,59.33
2019-01-24T12:04:05.322Z,52.87
2019-01-24T12:05:43.540Z,47.47
2019-01-24T12:07:20.304Z,60.00
2019-01-24T12:08:56.863Z,55.70
2019-01-24T12:10:33.736Z,57.13
2019-01-24T12:12:11.835Z,55.70
2019-01-24T12:13:47.656Z,51.80
2019-01-24T12:15:23.141Z,52.43
2019-01-24T12:16:59.149Z,58.43
2019-01-24T12:18:33.459Z,56.67
2019-01-24T12:20:08.004Z,54.40
2019-01-24T12:21:44.159Z,53.57
2019-01-24T12:23:20.104Z,48.23
2019-01-24T12:24:54.669Z,56.90
2019-01-24T12:26:28.548Z,53.90
2019-01-24T12:28:03.840Z,54.03
2019-01-24T12:29:40.252Z,51.80
2019-01-24T12:31:17.625Z,44.83
2019-01-24T12:32:51.108Z,52.90
2019-01-24T12:34:25.164Z,51.67
2019-01-24T12:35:59.313Z,52.60
2019-01-24T12:37:33.663Z,48.50
2019-01-24T12:39:07.469Z,46.63
2019-01-24T12:40:41.613Z,48.37
2019-01-24T12:42:15.778Z,52.53
2019-01-24T12:43:49.022Z,49.57
2019-01-24T12:45:25.673Z,50.57
2019-01-24T12:46:59.270Z,51.80
2019-01-24T12:48:33.295Z,49.50
2019-01-24T12:50:06.122Z,44.53
2019-01-24T12:51:40.263Z,43.60
2019-01-24T12:53:14.354Z,45.10
2019-01-24T12:54:47.500Z,45.20
2019-01-24T12:56:20.446Z,51.00
2019-01-24T12:57:53.818Z,46.27
2019-01-24T12:59:28.021Z,45.87
2019-01-24T13:01:02.922Z,43.87
2019-01-24T13:02:37.414Z,45.67
2019-01-24T13:04:12.530Z,48.07
2019-01-24T13:05:45.621Z,47.53
2019-01-24T13:07:19.888Z,47.23
2019-01-24T13:08:53.817Z,42.23
2019-01-24T13:10:30.736Z,47.47
2019-01-24T13:12:04.775Z,43.30
2019-01-24T13:13:39.815Z,46.57
2019-01-24T13:15:13.811Z,44.80
2019-01-24T13:16:47.153Z,45.80
2019-01-24T13:18:21.574Z,42.90
2019-01-24T13:19:54.753Z,45.27
2019-01-24T13:21:28.599Z,44.97
2019-01-24T13:23:01.500Z,40.57
2019-01-24T13:24:35.711Z,41.00
2019-01-24T13:26:08.831Z,41.33
2019-01-24T13:27:41.846Z,41.47
2019-01-24T13:29:15.831Z,45.80
2019-01-24T13:30:51.354Z,44.53
2019-01-24T13:32:24.662Z,42.67
2019-01-24T13:33:58.548Z,39.20
2019-01-24T13:35:31.492Z,36.13
2019-01-24T13:37:05.667Z,37.43
2019-01-24T13:38:38.609Z,43.10
2019-01-24T13:40:12.827Z,40.80
2019-01-24T13:41:46.750Z,39.33
2019-01-24T13:43:21.773Z,36.40
2019-01-24T13:44:56.094Z,38.97
2019-01-24T13:46:30.316Z,40.77
2019-01-24T13:48:04.285Z,44.17
2019-01-24T13:49:37.241Z,41.17
2019-01-24T13:51:11.931Z,47.50
2019-01-24T13:52:45.926Z,46.73
2019-01-24T13:54:20.214Z,39.27
2019-01-24T13:55:53.787Z,39.57
2019-01-24T13:57:28.166Z,41.07
2019-01-24T13:59:00.928Z,40.07
2019-01-24T14:00:38.970Z,42.73
2019-01-24T14:02:14.053Z,43.27
2019-01-24T14:03:58.043Z,39.27
2019-01-24T14:05:34.581Z,40.57
2019-01-24T14:07:08.769Z,43.10
2019-01-24T14:08:43.650Z,42.17
2019-01-24T14:10:18.071Z,41.07
2019-01-24T14:11:51.108Z,41.33
2019-01-24T14:13:25.643Z,43.63
2019-01-24T14:15:00.011Z,42.90
2019-01-24T14:16:34.634Z,41.60
2019-01-24T14:18:08.846Z,43.10
2019-01-24T14:19:41.852Z,46.87
2019-01-24T14:21:15.032Z,43.90
2019-01-24T14:22:47.796Z,44.10
2019-01-24T14:24:21.980Z,48.33
2019-01-24T14:25:55.389Z,52.40
2019-01-24T14:27:29.001Z,46.00
2019-01-24T14:29:03.187Z,50.20
2019-01-24T14:30:40.255Z,48.93
2019-01-24T14:32:14.284Z,45.50
2019-01-24T14:33:47.905Z,54.20
2019-01-24T14:35:21.655Z,50.60
2019-01-24T14:36:55.979Z,50.43
2019-01-24T14:38:30.183Z,48.27
2019-01-24T14:40:04.091Z,54.03
2019-01-24T14:41:38.704Z,57.53
2019-01-24T14:43:13.160Z,57.77
2019-01-24T14:44:47.228Z,60.13
2019-01-24T14:46:21.570Z,50.63
2019-01-24T14:47:55.850Z,57.00
2019-01-24T14:49:29.925Z,56.67
2019-01-24T14:51:03.871Z,55.90
2019-01-24T14:52:38.287Z,57.30
2019-01-24T14:54:12.486Z,59.70
2019-01-24T14:55:46.486Z,64.90
2019-01-24T14:57:19.609Z,64.53
2019-01-24T14:58:53.511Z,52.47
2019-01-24T15:00:32.003Z,61.23
2019-01-24T15:02:06.224Z,56.33
2019-01-24T15:03:40.511Z,63.43
2019-01-24T15:05:15.088Z,64.33
2019-01-24T15:06:49.300Z,55.20
2019-01-24T15:08:23.655Z,57.67
2019-01-24T15:09:57.555Z,56.83
2019-01-24T15:11:31.178Z,62.00
2019-01-24T15:13:05.286Z,63.77
2019-01-24T15:14:39.467Z,60.20
2019-01-24T15:16:12.879Z,54.27
2019-01-24T15:17:47.099Z,54.57
2019-01-24T15:19:21.726Z,60.43
2019-01-24T15:20:56.030Z,55.30
2019-01-24T15:22:30.561Z,59.03
2019-01-24T15:24:04.495Z,60.67
2019-01-24T15:25:38.507Z,57.23
2019-01-24T15:27:11.980Z,60.13
2019-01-24T15:28:46.970Z,65.10
2019-01-24T15:30:22.603Z,61.80
2019-01-24T15:31:56.699Z,52.03
2019-01-24T15:33:30.564Z,61.27
2019-01-24T15:35:03.861Z,52.10
2019-01-24T15:36:36.907Z,56.83
2019-01-24T15:38:11.133Z,56.57
2019-01-24T15:39:45.400Z,52.73
2019-01-24T15:41:19.591Z,55.63
2019-01-24T15:42:53.724Z,53.87
2019-01-24T15:44:28.113Z,47.20
2019-01-24T15:46:02.332Z,47.27
2019-01-24T15:47:37.630Z,60.00
2019-01-24T15:49:10.744Z,49.80
2019-01-24T15:50:43.624Z,56.80
2019-01-24T15:52:18.059Z,47.53
2019-01-24T15:53:51.455Z,55.90
2019-01-24T15:55:25.706Z,44.67
2019-01-24T15:56:59.492Z,47.53
2019-01-24T15:58:33.642Z,51.40
2019-01-24T16:00:07.928Z,44.33
2019-01-24T16:01:40.855Z,47.13
2019-01-24T16:03:16.028Z,40.33
2019-01-24T16:04:50.067Z,45.77
2019-01-24T16:06:23.159Z,45.73
2019-01-24T16:08:01.568Z,41.87
2019-01-24T16:09:33.019Z,43.13
2019-01-24T16:11:05.881Z,45.17
2019-01-24T16:12:39.931Z,43.60
2019-01-24T16:14:13.085Z,43.93
2019-01-24T16:15:49.464Z,44.57
2019-01-24T16:17:23.555Z,40.93
2019-01-24T16:18:57.502Z,36.57
2019-01-24T16:20:34.553Z,43.23
2019-01-24T16:22:07.377Z,42.37
2019-01-24T16:23:40.730Z,39.63
2019-01-24T16:25:15.629Z,35.37
2019-01-24T16:26:49.607Z,42.47
2019-01-24T16:28:24.831Z,43.10
2019-01-24T16:29:57.320Z,35.73
2019-01-24T16:31:31.344Z,38.37
2019-01-24T16:33:05.315Z,37.63
2019-01-24T16:34:39.236Z,43.90
2019-01-24T16:36:13.135Z,57.60
2019-01-24T16:37:47.211Z,87.07
2019-01-24T16:39:22.812Z,124.33
2019-01-24T16:40:56.105Z,163.43
2019-01-24T16:42:31.013Z,205.50
2019-01-24T16:44:03.996Z,213.25
2019-01-24T16:45:41.090Z,214.90
2019-01-24T16:47:14.940Z,205.87
2019-01-24T16:48:48.879Z,186.65
2019-01-24T16:50:24.240Z,163.43
2019-01-24T16:51:58.506Z,134.37
2019-01-24T16:53:32.718Z,117.50
2019-01-24T16:55:06.840Z,115.12
2019-01-24T16:56:40.947Z,89.42
2019-01-24T16:58:15.137Z,101.07
2019-01-24T16:59:49.455Z,82.12
2019-01-24T17:01:33.903Z,84.27
2019-01-24T17:03:07.899Z,73.90
2019-01-24T17:04:42.234Z,94.25
2019-01-24T17:06:16.649Z,140.47
2019-01-24T17:07:50.866Z,166.37
2019-01-24T17:09:25.805Z,136.97
2019-01-24T17:11:00.411Z,128.27
2019-01-24T17:12:34.497Z,127.97
2019-01-24T17:14:08.429Z,114.40
2019-01-24T17:15:42.408Z,100.62
2019-01-24T17:17:15.834Z,93.22
2019-01-24T17:18:50.050Z,84.85
2019-01-24T17:20:27.215Z,87.27
2019-01-24T17:22:00.341Z,78.27
2019-01-24T17:23:33.269Z,73.62
2019-01-24T17:25:06.509Z,67.60
2019-01-24T17:26:40.550Z,69.62
2019-01-24T17:28:14.638Z,65.20
2019-01-24T17:29:48.340Z,66.92
2019-01-24T17:31:22.853Z,71.92
2019-01-24T17:32:57.088Z,57.62
2019-01-24T17:34:31.681Z,64.50
2019-01-24T17:36:04.351Z,53.92
2019-01-24T17:37:38.686Z,54.25
2019-01-24T17:39:13.443Z,50.55
2019-01-24T17:40:48.437Z,57.87
2019-01-24T17:42:22.306Z,52.25
2019-01-24T17:43:56.482Z,49.17
2019-01-24T17:45:32.151Z,50.73
2019-01-24T17:47:06.192Z,49.27
2019-01-24T17:48:40.510Z,51.63
2019-01-24T17:50:14.414Z,47.40
2019-01-24T17:51:48.417Z,52.10
2019-01-24T17:53:22.047Z,49.80
2019-01-24T17:54:56.223Z,45.80
2019-01-24T17:56:29.400Z,46.97
2019-01-24T17:58:03.572Z,45.33
2019-01-24T17:59:37.783Z,44.20
2019-01-24T18:01:11.706Z,46.20
2019-01-24T18:02:46.104Z,46.40
2019-01-24T18:04:21.799Z,38.00
2019-01-24T18:05:54.780Z,47.30
2019-01-24T18:07:28.339Z,45.07
2019-01-24T18:09:02.991Z,42.97
2019-01-24T18:10:41.281Z,41.77
2019-01-24T18:12:14.335Z,43.70
2019-01-24T18:13:48.771Z,40.17
2019-01-24T18:15:24.813Z,42.33
2019-01-24T18:16:58.231Z,40.20
2019-01-24T18:18:33.441Z,38.50
2019-01-24T18:20:07.583Z,39.00
2019-01-24T18:21:41.651Z,39.50
2019-01-24T18:23:15.761Z,39.07
2019-01-24T18:24:49.968Z,37.23
2019-01-24T18:26:23.980Z,39.58
2019-01-24T18:27:58.186Z,36.60
2019-01-24T18:29:32.216Z,36.53
2019-01-24T18:31:07.133Z,34.58
2019-01-24T18:32:41.296Z,33.67
2019-01-24T18:34:15.757Z,33.70
2019-01-24T18:35:50.180Z,38.37
2019-01-24T18:37:24.531Z,37.83
2019-01-24T18:38:58.625Z,35.43
2019-01-24T18:40:34.914Z,39.37
2019-01-24T18:42:09.035Z,30.70
2019-01-24T18:43:45.100Z,37.93
2019-01-24T18:45:19.205Z,36.23
2019-01-24T18:46:53.251Z,39.43
2019-01-24T18:48:27.235Z,35.77
2019-01-24T18:50:01.339Z,31.53
2019-01-24T18:51:35.636Z,36.50
2019-01-24T18:53:09.602Z,34.27
2019-01-24T18:54:43.574Z,36.33
2019-01-24T18:56:17.487Z,35.97
2019-01-24T18:57:50.632Z,35.00
2019-01-24T18:59:24.445Z,36.30
2019-01-24T19:00:57.310Z,37.13
2019-01-24T19:02:31.476Z,39.90
2019-01-24T19:04:05.373Z,33.80
2019-01-24T19:05:39.030Z,39.83
2019-01-24T19:07:12.962Z,39.90
2019-01-24T19:08:46.212Z,32.87
2019-01-24T19:10:22.284Z,39.27
2019-01-24T19:11:56.325Z,32.00
2019-01-24T19:13:31.106Z,39.93
2019-01-24T19:15:04.976Z,36.27
2019-01-24T19:16:39.021Z,36.42
2019-01-24T19:18:13.142Z,41.10
2019-01-24T19:19:46.178Z,37.25
2019-01-24T19:21:21.430Z,36.60
2019-01-24T19:22:55.742Z,37.03
2019-01-24T19:24:29.724Z,38.30
2019-01-24T19:26:04.026Z,37.67
2019-01-24T19:27:38.982Z,33.67
2019-01-24T19:29:12.364Z,34.47
2019-01-24T19:30:46.763Z,38.17
2019-01-24T19:32:19.774Z,39.27
2019-01-24T19:33:53.447Z,37.77
2019-01-24T19:35:29.122Z,41.63
2019-01-24T19:37:03.002Z,41.03
2019-01-24T19:38:37.470Z,39.03
2019-01-24T19:40:12.966Z,37.67
2019-01-24T19:41:46.921Z,44.10
2019-01-24T19:43:19.920Z,39.67
2019-01-24T19:44:54.058Z,37.87
2019-01-24T19:46:27.745Z,38.63
2019-01-24T19:48:02.058Z,37.47
2019-01-24T19:49:36.452Z,45.90
2019-01-24T19:51:10.500Z,41.20
2019-01-24T19:52:43.852Z,39.77
2019-01-24T19:54:17.938Z,37.33
2019-01-24T19:55:52.175Z,33.10
2019-01-24T19:57:26.295Z,41.10
2019-01-24T19:59:00.389Z,38.30
2019-01-24T20:00:37.564Z,38.43
2019-01-24T20:02:10.670Z,39.43
2019-01-24T20:03:43.631Z,38.93
2019-01-24T20:05:17.750Z,41.47
2019-01-24T20:06:51.760Z,41.00
2019-01-24T20:08:25.751Z,41.83
2019-01-24T20:09:58.726Z,36.57
2019-01-24T20:11:31.685Z,40.53
2019-01-24T20:13:06.479Z,42.93
2019-01-24T20:14:39.330Z,40.93
2019-01-24T20:16:13.536Z,41.17
2019-01-24T20:17:47.928Z,37.83
2019-01-24T20:19:21.752Z,37.97